| Place | Name | Time | Raw score | Score |
|---|---|---|---|---|
| 1 | Bile | 1:08.71 | 1,000 | 190 |
| 2 | cerberus❤ | 1:09.59 | 900 | 171 |
| 3 | Predatory_Balloon | 1:10.32 | 859 | 163 |
| 4 | Zany | 1:11.15 | 827 | 157 |
| 5 | Mac_SirBlickith | 1:13.78 | 800 | 152 |
| 6 | Homulilly (Witch) | 1:20.34 | 777 | 147 |
| 7 | Mr Chip | 1:21.44 | 756 | 143 |
| 8 | Freud | 1:21.91 | 736 | 140 |
| 9 | TheAssassin1792 | 1:34.91 | 718 | 136 |
| 10 | Lol Bengals | 2:02.40 | 700 | 133 |
| 11 | Charlotte | 2:03.94 | 684 | 130 |
| 12 | ahtnos | 2:14.82 | 669 | 127 |
| 13 | [STREET BREED] Lewis Madilton | 2:40.96 | 654 | 124 |
| 14 | Nadius | 2:41.70 | 640 | 121 |
| 15 | D2C | Chrisc02 | 2:43.81 | 626 | 119 |
| 16 | Neo-kun | 2:45.83 | 613 | 116 |
| 17 | Kypkai | 2:50.32 | 600 | 114 |
| 18 | Nick Elements | 2:51.64 | 588 | 112 |
| 19 | Sidewinder Fang | 2:53.07 | 576 | 109 |
| 20 | PinesOfChaos | 2:54.53 | 565 | 107 |
| 21 | ReallyDumbFox | 2:56.29 | 553 | 105 |
| 22 | Kuzidas | 2:56.89 | 542 | 103 |
| 23 | General Kenobi | 2:57.82 | 531 | 101 |
| 24 | M.C. Splashdown | 2:59.59 | 521 | 99 |
| 25 | Kibōchen | 2:59.93 | 511 | 97 |
| 26 | Natr | 3:03.86 | 500 | 95 |
| 27 | NicholasKB19 | 3:04.60 | 491 | 93 |
| 28 | Zero_Antlax | 3:04.96 | 481 | 91 |
| 29 | Bridge | 3:05.47 | 471 | 89 |
| 30 | Iv0x | 3:06.20 | 462 | 88 |
| 31 | EzraW118 | 3:06.79 | 453 | 86 |
| 32 | TroniqOficial | 3:06.84 | 444 | 84 |
| 33 | FredFellow | 3:06.97 | 435 | 83 |
| 34 | Dalmi | 3:07.52 | 426 | 81 |
| 35 | A̶͓̓z̷͓̍ũ̴̩r̷͔͐e̴ | 3:07.65 | 417 | 79 |
| 36 | GTNeon | 3:07.84 | 409 | 78 |
| 37 | Revan5678 | 3:08.36 | 400 | 76 |
| 38 | H O T E K | 3:08.40 | 392 | 74 |
| 39 | The Blue Fox | 3:08.97 | 384 | 73 |
| 40 | TheBridge | 3:08.98 | 376 | 71 |
| 41 | Minecraft-pro | 3:09.56 | 368 | 70 |
| 42 | [MM] Vannevariable | 3:09.89 | 360 | 68 |
| 43 | Regular Dodecahedron | 3:09.94 | 352 | 67 |
| 44 | KevKirby | 3:10.03 | 345 | 65 |
| 45 | i0nTempest | 3:10.15 | 337 | 64 |
| 46 | Telereaper | 3:10.17 | 330 | 63 |
| 47 | Elan | 3:10.44 | 322 | 61 |
| 48 | Argoz | 3:10.51 | 315 | 60 |
| 49 | Alex | 3:10.81 | 308 | 58 |
| 50 | Ohnoitsmangofett | 3:11.19 | 300 | 57 |
| 51 | Winter's Crescendo | 3:11.28 | 293 | 56 |
| 52 | ApoC | 3:11.49 | 286 | 54 |
| 53 | Xero!-ism | 3:12.18 | 279 | 53 |
| 54 | EonShark | 3:13.09 | 272 | 52 |
| 55 | ペレリン | 3:13.31 | 266 | 50 |
| 56 | Hayden | 3:13.56 | 259 | 49 |
| 57 | Sensokaku | 3:13.85 | 252 | 48 |
| 58 | Brother Buckshot | 3:14.44 | 246 | 47 |
| 59 | CodeMaster | 3:14.84 | 239 | 45 |
| 60 | TauZule | 3:15.14 | 232 | 44 |
| 61 | Wolf Black | 3:15.47 | 226 | 43 |
| 62 | Lancer | 3:15.51 | 219 | 42 |
| 63 | MrXano | 3:15.55 | 213 | 40 |
| 63 | GrendarFlynt | 3:15.55 | 213 | 40 |
| 65 | D2C | CloudNinja | 3:15.70 | 200 | 38 |
| 66 | BusterThink | 3:16.42 | 194 | 37 |
| 67 | Nero_149 | 3:16.47 | 188 | 36 |
| 68 | SpyrouR | 3:16.58 | 182 | 35 |
| 69 | STAK | 3:16.62 | 176 | 33 |
| 70 | Crimson Blood | 3:16.68 | 170 | 32 |
| 71 | Monsoon | 3:16.88 | 164 | 31 |
| 72 | R1PP | 3:17.41 | 158 | 30 |
| 73 | Ghost764 | 3:17.44 | 152 | 29 |
| 74 | ibi | 3:17.70 | 146 | 28 |
| 75 | lolokeef | 3:17.99 | 140 | 27 |
| 76 | Eagl3 | 3:18.12 | 134 | 25 |
| 77 | slug ʕ●.●ʔ | 3:18.40 | 129 | 24 |
| 78 | Gazebo935 | 3:18.59 | 123 | 23 |
| 79 | Guilhotina | 3:18.68 | 117 | 22 |
| 80 | 🌺 CallMeAshley 🌺 | 3:19.40 | 112 | 21 |
| 81 | Maus | 3:19.49 | 106 | 20 |
| 82 | DecoyofChivalry | 3:19.53 | 100 | 19 |
| 83 | Divine | 3:19.74 | 95 | 18 |
| 84 | Waonder | 3:19.94 | 89 | 17 |
| 85 | Lémohn | 3:20.04 | 84 | 16 |
| 86 | SX64 | 3:21.26 | 79 | 15 |
| 87 | exai | 3:22.26 | 73 | 14 |
| 88 | Monark10 | 3:22.77 | 68 | 13 |
| 89 | dagirlwithaface | 3:23.54 | 62 | 12 |
| 90 | Delta711 | 3:23.55 | 57 | 11 |
| 91 | CrazyGamer742 | 3:23.87 | 52 | 10 |
| 92 | CableBox64 | 3:24.21 | 47 | 9 |
| 93 | roberto.goldberg.theiii | 3:24.68 | 41 | 8 |
| 94 | itzAndre | 3:24.72 | 36 | 7 |
| 95 | April_Angel | 3:25.08 | 31 | 6 |
| 96 | CrimsonBlade | 3:25.61 | 26 | 5 |
| 97 | -Ω- | 3:25.66 | 21 | 4 |
| 98 | Terrapin | 3:26.76 | 16 | 3 |
| 99 | deadtoke14 | 3:28.14 | 11 | 2 |
| 100 | Rick Ross | 3:28.84 | 6 | 1 |
| 101 | levinv270 | 3:29.07 | 0 | 0 |
| 102 | Terran CryoBat | 3:29.66 | 0 | 0 |
| 103 | Jashin | 3:29.73 | 0 | 0 |
| 104 | Dollynho2000 | 3:29.95 | 0 | 0 |
| 105 | sabonete liquido | 3:30.75 | 0 | 0 |
| 106 | Thumbs | 3:30.90 | 0 | 0 |
| 107 | ||GH꩜STEREAL | 3:31.32 | 0 | 0 |
| 107 | SynapseTweak | 3:31.32 | 0 | 0 |
| 109 | Runner 12 | 3:32.32 | 0 | 0 |
| 110 | mariyo | 3:32.56 | 0 | 0 |
| 111 | FifteenBread | 3:33.03 | 0 | 0 |
| 112 | Simon911 | 3:33.99 | 0 | 0 |
| 113 | Animax | 3:34.16 | 0 | 0 |
| 114 | Warriot | 3:34.49 | 0 | 0 |
| 115 | Xandrak | 3:35.64 | 0 | 0 |
| 115 | KirbzyServal | 3:35.64 | 0 | 0 |
| 117 | Ninja_Lord69 | 3:35.83 | 0 | 0 |
| 118 | KABOOM | 3:36.05 | 0 | 0 |
| 119 | Kinix | 3:36.28 | 0 | 0 |
| 120 | jprtbr | 3:38.28 | 0 | 0 |
| 121 | Burst_15 | 3:38.50 | 0 | 0 |
| 122 | DPftw | 3:38.86 | 0 | 0 |
| 123 | Papa resto | 3:39.13 | 0 | 0 |
| 124 | The other other Wylde | 3:40.47 | 0 | 0 |
| 125 | [deleted] | 3:40.68 | 0 | 0 |
| 126 | CesarX712 | 3:41.59 | 0 | 0 |
| 127 | thepizzaman2013 | 3:42.83 | 0 | 0 |
| 128 | !HPN!*1*P.NOEL | 3:42.98 | 0 | 0 |
| 129 | haibane. ☆ | 3:43.06 | 0 | 0 |
| 130 | vc tem sangue di maria bunita | 3:43.60 | 0 | 0 |
| 131 | Kunya The Scoot | 3:43.65 | 0 | 0 |
| 132 | VeloxCheetah | 3:43.74 | 0 | 0 |
| 133 | Snipedog | 3:44.03 | 0 | 0 |
| 133 | Tiyenti | 3:44.03 | 0 | 0 |
| 135 | Miaxcg | 3:44.32 | 0 | 0 |
| 136 | Lugia_ | 3:44.35 | 0 | 0 |
| 137 | Nitrium | 3:44.36 | 0 | 0 |
| 138 | LelouchXV3 | 3:44.65 | 0 | 0 |
| 139 | NetroidNederitch | 3:44.67 | 0 | 0 |
| 140 | The Friendly Gay Imbecile | 3:44.74 | 0 | 0 |
| 141 | sWilder9 | 3:44.93 | 0 | 0 |
| 142 | Vert_Wheeler --- CSGOSKINS | 3:44.96 | 0 | 0 |
| 143 | IsayH7w7 | 3:45.26 | 0 | 0 |
| 144 | XenoStorm9 | 3:45.27 | 0 | 0 |
| 145 | Jeżyk | 3:45.32 | 0 | 0 |
| 146 | Smkzinho | 3:45.69 | 0 | 0 |
| 147 | Bahy | 3:45.82 | 0 | 0 |
| 148 | Dark_Jinx | 3:46.01 | 0 | 0 |
| 149 | snugglebottom | 3:46.22 | 0 | 0 |
| 150 | Leito317 | 3:46.24 | 0 | 0 |
| 151 | RadLad25X | 3:46.27 | 0 | 0 |
| 152 | eunoe | 3:46.28 | 0 | 0 |
| 153 | Its Just a Dream | 3:46.31 | 0 | 0 |
| 154 | angek | 3:46.32 | 0 | 0 |
| 155 | MeiBunny | 3:46.71 | 0 | 0 |
| 156 | Desodorante | 3:46.88 | 0 | 0 |
| 157 | creatorperson | 3:47.09 | 0 | 0 |
| 158 | DSmiitty | 3:47.20 | 0 | 0 |
| 159 | Lufe | 3:47.55 | 0 | 0 |
| 160 | Thief6 | 3:47.82 | 0 | 0 |
| 161 | Nero | 3:47.83 | 0 | 0 |
| 162 | Onionlloyd | 3:47.97 | 0 | 0 |
| 163 | Retromancer | 3:48.20 | 0 | 0 |
| 164 | Nut Milk | 3:48.40 | 0 | 0 |
| 165 | trabrew | 3:48.41 | 0 | 0 |
| 166 | LP | 3:48.57 | 0 | 0 |
| 167 | VIPER LPM | 3:48.59 | 0 | 0 |
| 168 | momased | 3:48.77 | 0 | 0 |
| 169 | Tribow | 3:48.86 | 0 | 0 |
| 170 | Aluka Takumashiio | 3:48.93 | 0 | 0 |
| 171 | U.R.S.S.O | 3:48.94 | 0 | 0 |
| 172 | BARTIXPL | 3:49.01 | 0 | 0 |
| 173 | CamCronin | 3:49.22 | 0 | 0 |
| 174 | DieselFace | 3:49.25 | 0 | 0 |
| 175 | AceArroww | 3:49.35 | 0 | 0 |
| 176 | Jokul | 3:49.39 | 0 | 0 |
| 177 | Osbob | 3:49.52 | 0 | 0 |
| 178 | Sayukki | 3:49.53 | 0 | 0 |
| 179 | Steve from Customer Service | 3:49.59 | 0 | 0 |
| 179 | RedL | 3:49.59 | 0 | 0 |
| 181 | [DN] Pman001 | 3:49.98 | 0 | 0 |
| 182 | Assasinscr33d16 | 3:50.09 | 0 | 0 |
| 183 | NoBody | 3:50.38 | 0 | 0 |
| 184 | Chidaro | 3:50.46 | 0 | 0 |
| 185 | Spearmint | 3:50.50 | 0 | 0 |
| 186 | ΣlectrσWingPixy | 3:50.64 | 0 | 0 |
| 187 | Sev | 3:50.74 | 0 | 0 |
| 188 | PlΣXi | 3:50.76 | 0 | 0 |
| 189 | AdventureShock24 | 3:51.22 | 0 | 0 |
| 190 | Alaxendol | 3:51.33 | 0 | 0 |
| 191 | MALARIO | 3:51.56 | 0 | 0 |
| 192 | SuperElErizo | 3:52.03 | 0 | 0 |
| 193 | Owem | 3:52.13 | 0 | 0 |
| 194 | Battle Banana Chris Handsom | 3:52.59 | 0 | 0 |
| 195 | Keint | 3:52.82 | 0 | 0 |
| 196 | gabirugo | 3:53.01 | 0 | 0 |
| 197 | Ryosuke Takahashi | 3:53.16 | 0 | 0 |
| 198 | rodrox_24 | 3:53.56 | 0 | 0 |
| 199 | halfstream68 | 3:53.66 | 0 | 0 |
| 200 | Kaishen021 | 3:53.82 | 0 | 0 |
| 201 | Rusty | 3:53.98 | 0 | 0 |
| 202 | MarcosAcceleron | 3:54.03 | 0 | 0 |
| 203 | [teku] darkastroid | 3:54.87 | 0 | 0 |
| 204 | MCWDD | 3:55.66 | 0 | 0 |
| 205 | DaBlazeMann | 3:55.83 | 0 | 0 |
| 206 | yLucas_2203 | 3:55.88 | 0 | 0 |
| 207 | Dropkick | 3:55.94 | 0 | 0 |
| 208 | rflgrldx | 3:56.10 | 0 | 0 |
| 209 | JuanQuezツ | 3:56.20 | 0 | 0 |
| 210 | Cindy : ( : | 3:56.24 | 0 | 0 |
| 211 | Maxter Max | 3:56.58 | 0 | 0 |
| 212 | お兄ちゃんのおちんちんが大好き | 3:56.77 | 0 | 0 |
| 213 | BedrokiV | 3:56.87 | 0 | 0 |
| 214 | RocketLauncherMan | 3:57.17 | 0 | 0 |
| 215 | Rule34-chan | 3:57.53 | 0 | 0 |
| 216 | dcop2 | 3:57.68 | 0 | 0 |
| 217 | Fast Rivals35 | 3:57.74 | 0 | 0 |
| 218 | RashRusted | 3:58.06 | 0 | 0 |
| 219 | Derrick1188 | 3:58.12 | 0 | 0 |
| 220 | Kai Nura | 3:58.13 | 0 | 0 |
| 221 | Jezo | 3:58.42 | 0 | 0 |
| 222 | Samuel9248 | 3:58.69 | 0 | 0 |
| 223 | P1ovani | 3:58.70 | 0 | 0 |
| 224 | SneakySN | 3:58.71 | 0 | 0 |
| 225 | Beaach.Bum | 3:58.81 | 0 | 0 |
| 226 | Ae1oURed | 3:58.97 | 0 | 0 |
| 227 | Servs | 3:59.30 | 0 | 0 |
| 228 | Jek | 3:59.75 | 0 | 0 |
| 229 | Jrc126 | 3:59.94 | 0 | 0 |
| 230 | Void Concept | 4:00.14 | 0 | 0 |
| 231 | Azure Zakura | 4:00.22 | 0 | 0 |
| 232 | guh?? | 4:00.64 | 0 | 0 |
| 233 | Mint | 4:00.89 | 0 | 0 |
| 234 | Kimi Lotus | 4:01.32 | 0 | 0 |
| 235 | DARKZIN77 | 4:01.71 | 0 | 0 |
| 236 | Reus | 4:01.72 | 0 | 0 |
| 237 | Cisco 2900 Series ISR | 4:01.80 | 0 | 0 |
| 238 | Mîlchschnîtte | 4:02.34 | 0 | 0 |
| 239 | PrintedBean264TTV | 4:02.57 | 0 | 0 |
| 240 | Mimi | 4:02.63 | 0 | 0 |
| 241 | The Ol' Razzle Dazzle | 4:02.69 | 0 | 0 |
| 242 | dust | 4:03.03 | 0 | 0 |
| 243 | Myogi Night | 4:03.16 | 0 | 0 |
| 244 | Lunazoin | 4:03.27 | 0 | 0 |
| 245 | Frostbite-_ | 4:04.01 | 0 | 0 |
| 246 | Laco | 4:04.04 | 0 | 0 |
| 247 | Spencer | 4:04.15 | 0 | 0 |
| 248 | rosiebranch | 4:04.56 | 0 | 0 |
| 249 | Kukan | 4:04.63 | 0 | 0 |
| 250 | DeathByDusk | 4:04.76 | 0 | 0 |
| 251 | Blind Blink | 4:05.02 | 0 | 0 |
| 252 | T4NG | 4:05.22 | 0 | 0 |
| 253 | Trekker | 4:05.45 | 0 | 0 |
| 254 | CzR | 4:05.91 | 0 | 0 |
| 255 | Megamiguel3 | 4:06.10 | 0 | 0 |
| 256 | AmericanGuy | 4:07.23 | 0 | 0 |
| 257 | NoobMaster69 | 4:07.38 | 0 | 0 |
| 258 | Deora II | 4:07.65 | 0 | 0 |
| 259 | ItzSpectrum_ | 4:07.79 | 0 | 0 |
| 260 | Shuya | 4:07.87 | 0 | 0 |
| 261 | Thermos | 4:07.93 | 0 | 0 |
| 262 | Ryoteer | 4:08.02 | 0 | 0 |
| 263 | CelestialMap | 4:08.23 | 0 | 0 |
| 264 | ace4653 | 4:09.17 | 0 | 0 |
| 265 | Hopeless Himejoshi | 4:09.21 | 0 | 0 |
| 266 | frickin packet yo | 4:09.44 | 0 | 0 |
| 267 | Agent-Cryspy | 4:09.45 | 0 | 0 |
| 268 | RaiderZulu | 4:09.66 | 0 | 0 |
| 269 | KrizYuka | 4:09.67 | 0 | 0 |
| 270 | tomdalton88517 | 4:09.84 | 0 | 0 |
| 271 | LucasZPN | 4:10.04 | 0 | 0 |
| 272 | AG | Jet2holiday | 4:10.13 | 0 | 0 |
| 273 | ChknNuggetGod | 4:10.19 | 0 | 0 |
| 274 | shen | 4:10.23 | 0 | 0 |
| 275 | Awarz luy | 4:10.74 | 0 | 0 |
| 276 | -≺Zinc≻- | 4:11.12 | 0 | 0 |
| 277 | SkyRunner888 | 4:11.16 | 0 | 0 |
| 278 | TwinHumanities | 4:11.63 | 0 | 0 |
| 279 | Sambaty102 | 4:11.88 | 0 | 0 |
| 280 | bodyshotspecialist | 4:12.00 | 0 | 0 |
| 281 | jackblackberry3 | 4:12.55 | 0 | 0 |
| 282 | Aastaroth | 4:12.73 | 0 | 0 |
| 283 | Epsilon | 4:12.77 | 0 | 0 |
| 284 | Wylde | 4:13.11 | 0 | 0 |
| 285 | Starkiller246 | 4:13.15 | 0 | 0 |
| 286 | DarkArt | 4:13.23 | 0 | 0 |
| 287 | Gmor-4 | 4:13.24 | 0 | 0 |
| 288 | 𝓖𝓪𝓻𝓭𝓮𝓶 | 4:13.30 | 0 | 0 |
| 289 | Mat | 4:13.36 | 0 | 0 |
| 290 | racedriver117 | 4:13.41 | 0 | 0 |
| 291 | SlowScan | 4:13.55 | 0 | 0 |
| 292 | Stolas OVO | 4:13.65 | 0 | 0 |
| 293 | XLgeneral | 4:13.82 | 0 | 0 |
| 294 | Dislin | 4:13.83 | 0 | 0 |
| 295 | Pingu | 4:14.05 | 0 | 0 |
| 296 | Ondeocabamijaqui? | 4:14.59 | 0 | 0 |
| 297 | Matador de Pombo | 4:14.67 | 0 | 0 |
| 297 | THE MOTHMAN | 4:14.67 | 0 | 0 |
| 299 | BingBong | 4:14.88 | 0 | 0 |
| 300 | DoctorBexstin | 4:14.97 | 0 | 0 |
| 301 | kiprobin | 4:15.81 | 0 | 0 |
| 302 | Dany | 4:16.10 | 0 | 0 |
| 303 | Rombommind | 4:16.12 | 0 | 0 |
| 304 | KingClockwork | 4:16.17 | 0 | 0 |
| 305 | GeorgieBoi | 4:16.20 | 0 | 0 |
| 306 | Calico | 4:16.43 | 0 | 0 |
| 307 | _N0User | 4:16.99 | 0 | 0 |
| 308 | Valt_Aoi | 4:17.03 | 0 | 0 |
| 309 | Ams012101 | 4:17.14 | 0 | 0 |
| 310 | sschooryy | 4:17.51 | 0 | 0 |
| 311 | Exe Estranged | 4:17.88 | 0 | 0 |
| 312 | ErzoopaRTR | 4:18.16 | 0 | 0 |
| 313 | Nickel | 4:18.42 | 0 | 0 |
| 314 | Ghost4573 | 4:18.60 | 0 | 0 |
| 315 | lunaxiu | 4:18.63 | 0 | 0 |
| 316 | wilber117 | 4:18.77 | 0 | 0 |
| 317 | Greenfire DX | 4:19.28 | 0 | 0 |
| 318 | ♣Retro Kiwi♣ | 4:19.66 | 0 | 0 |
| 319 | enkels | 4:19.75 | 0 | 0 |
| 320 | JeffTheBruh | 4:19.95 | 0 | 0 |
| 321 | 1gengabe | 4:19.96 | 0 | 0 |
| 322 | Kanamarise | 4:20.08 | 0 | 0 |
| 323 | Lenny | 4:20.21 | 0 | 0 |
| 324 | azarraga0912 | 4:20.38 | 0 | 0 |
| 325 | Suspect | 4:20.52 | 0 | 0 |
| 326 | Rob_bie_n_Blair | 4:20.68 | 0 | 0 |
| 327 | Pedromaua | 4:20.87 | 0 | 0 |
| 328 | Ayrton Senna | 4:20.92 | 0 | 0 |
| 329 | Jeni Wick | 4:21.89 | 0 | 0 |
| 330 | larson | 4:21.91 | 0 | 0 |
| 331 | Farukon | 4:21.98 | 0 | 0 |
| 332 | Carl Johnson | 4:22.27 | 0 | 0 |
| 333 | Eddie980® | 4:22.62 | 0 | 0 |
| 334 | Wee_Zee ウィージー | 4:22.73 | 0 | 0 |
| 335 | Jason Waterfalls | 4:23.06 | 0 | 0 |
| 336 | zgormley | 4:23.28 | 0 | 0 |
| 337 | LuxArcadia | 4:23.76 | 0 | 0 |
| 338 | jason | 4:23.79 | 0 | 0 |
| 339 | A very silly man indeed | 4:24.12 | 0 | 0 |
| 340 | Plewt0 | 4:24.16 | 0 | 0 |
| 341 | Yuto Sakurajima | 4:24.28 | 0 | 0 |
| 342 | Zuper Greek | 4:24.51 | 0 | 0 |
| 343 | XMD007 | 4:25.15 | 0 | 0 |
| 344 | NK - Néko | 4:25.49 | 0 | 0 |
| 345 | artsytreefortress | 4:25.57 | 0 | 0 |
| 346 | EteraKagekara | 4:25.75 | 0 | 0 |
| 347 | zNickSpeed | 4:25.80 | 0 | 0 |
| 348 | Galactix | 4:26.02 | 0 | 0 |
| 349 | fentanyl lover <3 | 4:26.35 | 0 | 0 |
| 350 | Teku | 4:26.37 | 0 | 0 |
| 351 | Matheus Pereira | 4:27.30 | 0 | 0 |
| 352 | Shadow | 4:27.71 | 0 | 0 |
| 353 | Hightree | 4:27.88 | 0 | 0 |
| 354 | W0lf_Lupin | 4:28.00 | 0 | 0 |
| 355 | FolgosiN | 4:28.02 | 0 | 0 |
| 356 | Pedrosohgp | 4:28.17 | 0 | 0 |
| 357 | Tamago | 4:28.48 | 0 | 0 |
| 358 | Hars | 4:28.76 | 0 | 0 |
| 359 | Micopa28 | 4:29.24 | 0 | 0 |
| 360 | alvar902 | 4:29.25 | 0 | 0 |
| 361 | Zeo | 4:29.37 | 0 | 0 |
| 362 | Graham Hill | 4:30.11 | 0 | 0 |
| 363 | JayBoneJay | 4:30.59 | 0 | 0 |
| 364 | Charles Knob | 4:30.89 | 0 | 0 |
| 365 | Jesterthunder | 4:30.96 | 0 | 0 |
| 366 | Ultrashadic245 | 4:31.07 | 0 | 0 |
| 367 | NostalgicRage | 4:31.13 | 0 | 0 |
| 368 | Alex Chosen | 4:31.35 | 0 | 0 |
| 369 | Banunkie | 4:31.70 | 0 | 0 |
| 370 | Tac | 4:31.73 | 0 | 0 |
| 371 | rannie.c11 | 4:31.89 | 0 | 0 |
| 372 | D2C | Luxarius | 4:31.97 | 0 | 0 |
| 373 | Renown | 4:31.98 | 0 | 0 |
| 374 | MastrMagik | 4:32.16 | 0 | 0 |
| 375 | keke5852 | 4:32.59 | 0 | 0 |
| 376 | Gix Busok | 4:32.72 | 0 | 0 |
| 377 | Psyonix | 4:32.74 | 0 | 0 |
| 378 | krizithy | 4:32.86 | 0 | 0 |
| 379 | 76561198336712607 | 4:33.39 | 0 | 0 |
| 380 | Kobra | 4:33.48 | 0 | 0 |
| 381 | JustSolLotus | 4:33.59 | 0 | 0 |
| 382 | _XZX_ | 4:33.60 | 0 | 0 |
| 383 | pdbp | 4:33.86 | 0 | 0 |
| 384 | A little blue jay | 4:33.87 | 0 | 0 |
| 385 | The Guardian of nothing | 4:34.18 | 0 | 0 |
| 386 | Simple pero kavfri | 4:34.83 | 0 | 0 |
| 387 | nfsfastlane8 | 4:34.92 | 0 | 0 |
| 388 | Waymint | 4:35.39 | 0 | 0 |
| 389 | notguts | 4:35.96 | 0 | 0 |
| 390 | Dante | 4:36.23 | 0 | 0 |
| 391 | Stuff | 4:36.25 | 0 | 0 |
| 392 | r0ar304 | 4:36.44 | 0 | 0 |
| 393 | koralunderline | 4:36.53 | 0 | 0 |
| 394 | Hvala | 4:36.61 | 0 | 0 |
| 395 | ElMathidones | 4:36.70 | 0 | 0 |
| 396 | Nebby Pillow | 4:36.78 | 0 | 0 |
| 397 | Barry snorevitch | 4:36.86 | 0 | 0 |
| 398 | WOLFE.WAV | 4:36.92 | 0 | 0 |
| 399 | Tragic_Flight | 4:37.00 | 0 | 0 |
| 400 | . | 4:37.25 | 0 | 0 |
| 401 | Recall280 | 4:37.31 | 0 | 0 |
| 402 | Гвоздь | 4:37.39 | 0 | 0 |
| 403 | bearhandshark | 4:38.43 | 0 | 0 |
| 404 | Jack Attack | 4:38.60 | 0 | 0 |
| 405 | rey-bukabuka | 4:38.79 | 0 | 0 |
| 406 | AnonyBunny | 4:38.98 | 0 | 0 |
| 407 | Mirarara | 4:39.21 | 0 | 0 |
| 408 | raboloco506 | 4:39.29 | 0 | 0 |
| 409 | NIK tesLa | 4:39.30 | 0 | 0 |
| 410 | Delta44 | 4:39.75 | 0 | 0 |
| 411 | Drac7584 | 4:40.10 | 0 | 0 |
| 412 | Barack Arcana | 4:40.45 | 0 | 0 |
| 413 | swit2k | 4:40.73 | 0 | 0 |
| 414 | Gun_Maquire | 4:41.13 | 0 | 0 |
| 415 | Kalinag12 | 4:41.64 | 0 | 0 |
| 416 | Raego | 4:41.69 | 0 | 0 |
| 417 | wolfblade3000 | 4:41.77 | 0 | 0 |
| 418 | Nebula | 4:41.79 | 0 | 0 |
| 419 | T8Destroyer | 4:42.01 | 0 | 0 |
| 420 | EzeDls | 4:42.73 | 0 | 0 |
| 421 | Krokonauta312 | 4:42.80 | 0 | 0 |
| 422 | 「Starlight Moonbow」 | 4:42.98 | 0 | 0 |
| 423 | Overlord | 4:43.01 | 0 | 0 |
| 424 | balomy | 4:43.42 | 0 | 0 |
| 425 | Fran | 4:43.60 | 0 | 0 |
| 426 | D-Z-U-E-T | 4:43.79 | 0 | 0 |
| 427 | draytonlyden | 4:43.89 | 0 | 0 |
| 428 | MrZERITTO SKINS | 4:44.02 | 0 | 0 |
| 429 | Burning_Sorrows | 4:44.17 | 0 | 0 |
| 430 | Official_Jackko | 4:44.25 | 0 | 0 |
| 431 | ZerCoro | 4:44.92 | 0 | 0 |
| 432 | ghtrigaming | 4:45.57 | 0 | 0 |
| 433 | halohotrod | 4:46.01 | 0 | 0 |
| 434 | Bisaflur | 4:46.35 | 0 | 0 |
| 435 | Foquizin | 4:46.61 | 0 | 0 |
| 436 | Creepersrock24Gaming | 4:46.78 | 0 | 0 |
| 437 | CrucibleOfHate | 4:47.06 | 0 | 0 |
| 438 | Rudik | 4:47.20 | 0 | 0 |
| 439 | SirEldricht | 4:47.41 | 0 | 0 |
| 440 | Galberto | 4:47.66 | 0 | 0 |
| 441 | SillySean | 4:48.60 | 0 | 0 |
| 442 | PrimeCloudXII | 4:49.07 | 0 | 0 |
| 443 | StephanoLight | 4:49.16 | 0 | 0 |
| 444 | Rice_Jacrispy | 4:49.43 | 0 | 0 |
| 445 | GameStarLion | 4:49.63 | 0 | 0 |
| 446 | TriggerHappy | 4:49.72 | 0 | 0 |
| 447 | Blast | 4:49.81 | 0 | 0 |
| 448 | Parady | 4:49.86 | 0 | 0 |
| 449 | GravitationalSingularity | 4:49.96 | 0 | 0 |
| 450 | Toga Himiko | 4:49.97 | 0 | 0 |
| 451 | aerie | 4:50.20 | 0 | 0 |
| 452 | ZeeHatcher | 4:51.15 | 0 | 0 |
| 453 | Shlave[DN] Defalt | 4:51.17 | 0 | 0 |
| 454 | lemon | 4:51.23 | 0 | 0 |
| 455 | OnyxLock | 4:51.24 | 0 | 0 |
| 456 | EJ | 4:51.30 | 0 | 0 |
| 457 | Nebularsty | 4:51.53 | 0 | 0 |
| 458 | Cliff | 4:51.57 | 0 | 0 |
| 459 | ВАДЮША RUS | 4:51.82 | 0 | 0 |
| 460 | Gary Smith | 4:52.11 | 0 | 0 |
| 461 | Greyhoundsniper | 4:52.18 | 0 | 0 |
| 462 | Qioury | 4:52.22 | 0 | 0 |
| 463 | Vert | 4:52.25 | 0 | 0 |
| 464 | Pankyy | 4:52.38 | 0 | 0 |
| 465 | Duke Swampy | 4:52.40 | 0 | 0 |
| 466 | FolgosiN | 4:52.62 | 0 | 0 |
| 467 | Djdookeynut | 4:52.67 | 0 | 0 |
| 468 | Calcifersaw | 4:53.14 | 0 | 0 |
| 469 | Jacaré Baitola | 4:53.16 | 0 | 0 |
| 470 | Nexusjc1 | 4:53.32 | 0 | 0 |
| 471 | Shroom | 4:53.65 | 0 | 0 |
| 472 | Snowstrike | 4:53.75 | 0 | 0 |
| 473 | mikayla | 4:53.79 | 0 | 0 |
| 474 | Soggy | 4:53.80 | 0 | 0 |
| 475 | Mangle (moving house... again) | 4:53.95 | 0 | 0 |
| 476 | Jxnathan12_UHC | 4:55.18 | 0 | 0 |
| 477 | Eridian | 4:55.76 | 0 | 0 |
| 478 | GaiaGaiyus | 4:56.48 | 0 | 0 |
| 479 | Xyvine | 4:56.55 | 0 | 0 |
| 480 | Panfiro | 4:56.62 | 0 | 0 |
| 481 | Kimjido | 4:56.90 | 0 | 0 |
| 482 | Orion | 4:57.01 | 0 | 0 |
| 483 | Project73 | 4:57.10 | 0 | 0 |
| 484 | N!COTN™ | 4:57.44 | 0 | 0 |
| 485 | Asado_3000 | 4:57.97 | 0 | 0 |
| 486 | Chronos | 4:58.14 | 0 | 0 |
| 487 | Seere | 4:58.42 | 0 | 0 |
| 488 | jes25947 | 4:58.66 | 0 | 0 |
| 489 | Gara | 4:58.75 | 0 | 0 |
| 490 | Spoon | 4:58.86 | 0 | 0 |
| 491 | FreeFull | 4:59.04 | 0 | 0 |
| 492 | Leo | 4:59.15 | 0 | 0 |
| 493 | HollowNitro | 4:59.25 | 0 | 0 |
| 494 | BrOverShield | 4:59.41 | 0 | 0 |
| 495 | felipe.f.a | 4:59.56 | 0 | 0 |
| 496 | Helltaker19 | 4:59.72 | 0 | 0 |
| 497 | woobert | 4:59.84 | 0 | 0 |
| 498 | Vyvix#4949 | 4:59.95 | 0 | 0 |
| 499 | PanaJuanji | 4:59.98 | 0 | 0 |
| 500 | RoyalUui | 5:00.05 | 0 | 0 |
| 501 | NatsuDrago | 5:00.28 | 0 | 0 |
| 502 | yuyu | 5:00.33 | 0 | 0 |
| 503 | KOS | 5:00.44 | 0 | 0 |
| 504 | YoloMoth | 5:00.48 | 0 | 0 |
| 505 | Beras | 5:00.49 | 0 | 0 |
| 506 | Live Laugh Love | 5:00.91 | 0 | 0 |
| 507 | Kisaragi ❟❛❟ きさらぎ | 5:00.94 | 0 | 0 |
| 508 | YeetusDeleteus | 5:01.41 | 0 | 0 |
| 509 | DinoTK22 | 5:01.43 | 0 | 0 |
| 510 | BigBoi | 5:01.65 | 0 | 0 |
| 511 | Red King | 5:01.70 | 0 | 0 |
| 512 | Tzav | 5:02.09 | 0 | 0 |
| 513 | M4RC0 | 5:02.27 | 0 | 0 |
| 514 | Galax | 5:02.76 | 0 | 0 |
| 515 | PURPPINATI ch0ppA | 5:02.85 | 0 | 0 |
| 516 | CodedCrow | 5:03.06 | 0 | 0 |
| 516 | No Oesophagus Boi | 5:03.06 | 0 | 0 |
| 518 | LuX5 | 5:03.40 | 0 | 0 |
| 519 | wifi | 5:03.52 | 0 | 0 |
| 520 | Kazuxz | 5:03.68 | 0 | 0 |
| 521 | 0Prat4 | 5:03.93 | 0 | 0 |
| 522 | Tian1354 | 5:03.97 | 0 | 0 |
| 523 | Kàgèzashi | 5:04.07 | 0 | 0 |
| 524 | BabyBossDelConurbano | 5:04.33 | 0 | 0 |
| 525 | KingOfHell | 5:04.34 | 0 | 0 |
| 526 | Shirayuki | 5:04.91 | 0 | 0 |
| 527 | Hekko | 5:05.24 | 0 | 0 |
| 528 | BDC Szedli Blokk | 5:05.41 | 0 | 0 |
| 529 | Kauzedd | 5:05.51 | 0 | 0 |
| 530 | Historia the BobCatboy | 5:05.65 | 0 | 0 |
| 531 | JaydenPi | 5:05.75 | 0 | 0 |
| 532 | Can of Toast | 5:06.36 | 0 | 0 |
| 533 | Dabielk | 5:06.62 | 0 | 0 |
| 534 | NULL; | 5:06.82 | 0 | 0 |
| 535 | Pequeno Viajante | 5:06.87 | 0 | 0 |
| 536 | LeFluffySquirrel | 5:06.99 | 0 | 0 |
| 537 | [deleted] | 5:07.08 | 0 | 0 |
| 538 | Bun Cruncher | 5:07.88 | 0 | 0 |
| 539 | _BlueScorpion_ | 5:08.08 | 0 | 0 |
| 540 | pcl219 | 5:08.19 | 0 | 0 |
| 541 | Besieged Brisk | 5:08.55 | 0 | 0 |
| 542 | Junkie | 5:08.68 | 0 | 0 |
| 543 | Mickael | 5:08.69 | 0 | 0 |
| 544 | DrakeTey | 5:08.82 | 0 | 0 |
| 545 | Chase | 5:08.93 | 0 | 0 |
| 546 | jeremiasmendez003 | 5:09.06 | 0 | 0 |
| 547 | Zeraphen | 5:09.11 | 0 | 0 |
| 548 | elZero | 5:09.39 | 0 | 0 |
| 549 | Etria | 5:09.48 | 0 | 0 |
| 550 | Condenado_N | 5:09.57 | 0 | 0 |
| 551 | Aiko | 5:09.63 | 0 | 0 |
| 552 | Skrigar | 5:09.64 | 0 | 0 |
| 553 | HiccupGamer | 5:09.71 | 0 | 0 |
| 554 | sebasGa_YT | 5:10.06 | 0 | 0 |
| 555 | TheEvilMidnightBomber | 5:10.67 | 0 | 0 |
| 556 | Munchkin6032 | 5:10.68 | 0 | 0 |
| 557 | BarnGeist | 5:11.20 | 0 | 0 |
| 558 | [Lard] Kriltch | 5:11.76 | 0 | 0 |
| 559 | LUV2 H8SNAGZ | 5:11.77 | 0 | 0 |
| 560 | PotatoKneecap | 5:12.10 | 0 | 0 |
| 561 | xkaiolahiax | 5:12.21 | 0 | 0 |
| 562 | florian.s | 5:12.41 | 0 | 0 |
| 563 | ShadowGaming449 | 5:12.49 | 0 | 0 |
| 564 | ._REX_KOBRA_Xx_xX_. | 5:12.91 | 0 | 0 |
| 565 | SIlva01 | 5:13.16 | 0 | 0 |
| 566 | DamnedDeyvid | 5:13.36 | 0 | 0 |
| 567 | Hiro | 5:13.73 | 0 | 0 |
| 568 | pirelli racing tire | 5:13.88 | 0 | 0 |
| 569 | Smiley | 5:14.00 | 0 | 0 |
| 570 | JOHN117B127 | 5:14.18 | 0 | 0 |
| 571 | sub572 | 5:14.32 | 0 | 0 |
| 572 | D34DR3V3NG3 | 5:14.33 | 0 | 0 |
| 572 | Bullet074 | 5:14.33 | 0 | 0 |
| 574 | kevinbotello594837 | 5:14.90 | 0 | 0 |
| 575 | Penedro | 5:15.05 | 0 | 0 |
| 576 | veggieboy05 | 5:15.32 | 0 | 0 |
| 577 | SUPER MARIO FAN 6900 | 5:15.35 | 0 | 0 |
| 578 | Caviar | 5:15.45 | 0 | 0 |
| 579 | Weird Pumpkin | 5:15.50 | 0 | 0 |
| 580 | finishkk | 5:15.62 | 0 | 0 |
| 581 | HollyPotato | 5:16.19 | 0 | 0 |
| 582 | xXLoan$wagXx420 | 5:16.24 | 0 | 0 |
| 583 | souleater5028 | 5:16.51 | 0 | 0 |
| 584 | Jolt24 | 5:16.87 | 0 | 0 |
| 585 | Doffinger | 5:16.95 | 0 | 0 |
| 586 | Jappen | 5:17.38 | 0 | 0 |
| 587 | XEqualsPenguin | 5:17.39 | 0 | 0 |
| 588 | Tom morello ᴾˢ² | 5:17.42 | 0 | 0 |
| 589 | fab | 5:17.48 | 0 | 0 |
| 590 | Todesschnitzel25 | 5:17.62 | 0 | 0 |
| 591 | Dust Man | 5:17.67 | 0 | 0 |
| 592 | luisdanielquesadagonzalez | 5:17.85 | 0 | 0 |
| 593 | Jiboia Austríaca | 5:17.92 | 0 | 0 |
| 594 | Etherealeon | 5:17.96 | 0 | 0 |
| 595 | s0tt0 | 5:18.05 | 0 | 0 |
| 596 | Tzaw8 | 5:18.64 | 0 | 0 |
| 597 | Klaus Zeitraum | Creation Magic | 5:18.73 | 0 | 0 |
| 598 | AllfatherLloyd | 5:18.87 | 0 | 0 |
| 599 | OriReal_CAOS | 5:19.77 | 0 | 0 |
| 600 | cardiacgirls | 5:20.27 | 0 | 0 |
| 601 | Breno_SO | 5:20.28 | 0 | 0 |
| 602 | trumpetkid14 | 5:20.39 | 0 | 0 |
| 603 | croc | 5:20.62 | 0 | 0 |
| 604 | lift your tail for me | 5:20.79 | 0 | 0 |
| 605 | NadaHaver | 5:20.83 | 0 | 0 |
| 606 | Griz | 5:20.96 | 0 | 0 |
| 607 | Sovereign Black | 5:21.08 | 0 | 0 |
| 608 | Akapaya | 5:21.46 | 0 | 0 |
| 609 | razingyayyay | 5:21.76 | 0 | 0 |
| 610 | Mz_ | 5:21.99 | 0 | 0 |
| 611 | | fluffy | Xenox | 5:22.14 | 0 | 0 |
| 612 | jnfred | 5:22.41 | 0 | 0 |
| 613 | Hirochi | 5:22.46 | 0 | 0 |
| 614 | The Insomniac | 5:22.55 | 0 | 0 |
| 615 | Apollo | 5:22.66 | 0 | 0 |
| 616 | ^3[ATOMIC] ^0I ^5Freak | 5:22.82 | 0 | 0 |
| 617 | zmbie | 5:22.83 | 0 | 0 |
| 618 | Kirin | 5:22.93 | 0 | 0 |
| 619 | Arphesia | 5:23.23 | 0 | 0 |
| 620 | Slacks | 5:24.40 | 0 | 0 |
| 621 | Trillico | 5:24.52 | 0 | 0 |
| 622 | SomeRandomSoldier | 5:24.57 | 0 | 0 |
| 623 | the Bear of the Web | 5:25.11 | 0 | 0 |
| 624 | Sacerdote do Tetragramatron | 5:25.40 | 0 | 0 |
| 625 | mini | 5:26.15 | 0 | 0 |
| 626 | vert4848 | 5:26.36 | 0 | 0 |
| 627 | O' The Iron E | 5:26.39 | 0 | 0 |
| 628 | KikRs | 5:27.04 | 0 | 0 |
| 629 | Mist Finer | 5:27.17 | 0 | 0 |
| 630 | Henry BPI | 5:27.20 | 0 | 0 |
| 631 | JULIOCGS | 5:27.22 | 0 | 0 |
| 632 | < M A T > | 5:27.24 | 0 | 0 |
| 633 | Meisolus | 5:27.56 | 0 | 0 |
| 634 | The_Digimatic | 5:27.97 | 0 | 0 |
| 635 | ShironVarden | 5:28.02 | 0 | 0 |
| 636 | kiri | 5:28.10 | 0 | 0 |
| 637 | Ramalis | 5:28.33 | 0 | 0 |
| 638 | Noble | 5:28.34 | 0 | 0 |
| 639 | † vireoh † | 5:28.75 | 0 | 0 |
| 640 | Asinay | 5:28.92 | 0 | 0 |
| 641 | SoniXErik | 5:29.03 | 0 | 0 |
| 642 | Beefro | 5:29.16 | 0 | 0 |
| 643 | Chakkra_Skip | 5:29.19 | 0 | 0 |
| 644 | NeutralArt | 5:29.20 | 0 | 0 |
| 645 | nestum | 5:29.57 | 0 | 0 |
| 646 | [RYC] Robin Yrvriff | 5:29.98 | 0 | 0 |
| 647 | LordBohne2 | 5:30.04 | 0 | 0 |
| 648 | CallMe_Collin | 5:30.28 | 0 | 0 |
| 649 | Kai! | 5:30.54 | 0 | 0 |
| 650 | Hanimani2 | 5:31.02 | 0 | 0 |
| 651 | Haunted Pleb | 5:31.23 | 0 | 0 |
| 652 | Sabriii | 5:31.46 | 0 | 0 |
| 653 | Taro Eiss | 5:31.75 | 0 | 0 |
| 654 | CapleGuion | 5:31.79 | 0 | 0 |
| 655 | Theformeni24 | 5:32.01 | 0 | 0 |
| 656 | Depdawg | 5:32.02 | 0 | 0 |
| 657 | Kane6032 | 5:32.03 | 0 | 0 |
| 657 | MrMoFoEsquire | 5:32.03 | 0 | 0 |
| 659 | SkullzCandyz | 5:32.12 | 0 | 0 |
| 660 | Apocalyptic Bunny | 5:32.28 | 0 | 0 |
| 661 | Faith. | 5:32.37 | 0 | 0 |
| 662 | AlbumEx | 5:32.73 | 0 | 0 |
| 663 | Espctro | 5:33.29 | 0 | 0 |
| 664 | rbrules | 5:33.39 | 0 | 0 |
| 665 | NotDummySoul | 5:34.06 | 0 | 0 |
| 666 | Humbdle | 5:34.10 | 0 | 0 |
| 667 | Kenpachi83 | 5:34.25 | 0 | 0 |
| 668 | Rains | 5:34.37 | 0 | 0 |
| 669 | Danny | 5:34.46 | 0 | 0 |
| 670 | Garbage_B0at | 5:35.04 | 0 | 0 |
| 671 | Plasmawario | 5:35.34 | 0 | 0 |
| 672 | 𝔸𝕩𝕃𝕃𝕁𝕒𝕞 | 5:35.58 | 0 | 0 |
| 673 | Mr. R | 5:35.69 | 0 | 0 |
| 674 | Art | 5:36.20 | 0 | 0 |
| 675 | 2002 Hyundai Getz | 5:36.59 | 0 | 0 |
| 676 | tjgamer01 | 5:37.07 | 0 | 0 |
| 677 | Yamato 'bold | 5:37.30 | 0 | 0 |
| 678 | Jeats | 5:37.37 | 0 | 0 |
| 679 | GoldenTheBox | 5:37.44 | 0 | 0 |
| 680 | ツFernandoツ | 5:37.55 | 0 | 0 |
| 680 | PadmusMH | 5:37.55 | 0 | 0 |
| 680 | Dunker | 5:37.55 | 0 | 0 |
| 683 | SigmaLX (ELK) | 5:37.85 | 0 | 0 |
| 684 | calavermaeg | 5:38.03 | 0 | 0 |
| 685 | somenteberaldo | 5:38.13 | 0 | 0 |
| 685 | Brandon.EXE | 5:38.13 | 0 | 0 |
| 687 | shadow | 5:38.35 | 0 | 0 |
| 688 | Slender19rus | 5:38.73 | 0 | 0 |
| 689 | K-NiGHT | 5:38.76 | 0 | 0 |
| 690 | Gr3g0r1o | 5:39.02 | 0 | 0 |
| 691 | Most Dangerous J-tek Producer | 5:39.32 | 0 | 0 |
| 692 | Overlock | 5:39.59 | 0 | 0 |
| 693 | CREEPY GAME 66 | 5:39.64 | 0 | 0 |
| 694 | Winters | 5:39.77 | 0 | 0 |
| 695 | Big Bootiecoot | 5:40.13 | 0 | 0 |
| 696 | "Lodern" Zimtschnecke | 5:40.15 | 0 | 0 |
| 697 | Fary_Fenny | 5:40.32 | 0 | 0 |
| 698 | RelaxingFox | 5:40.35 | 0 | 0 |
| 699 | Nacho2XD | 5:40.54 | 0 | 0 |
| 700 | Bronzeclaw | 5:40.59 | 0 | 0 |
| 701 | Akillwz | 5:40.62 | 0 | 0 |
| 702 | Nuthouse | 5:40.70 | 0 | 0 |
| 703 | ルイーズ | 5:41.14 | 0 | 0 |
| 704 | lautafi32 | 5:41.26 | 0 | 0 |
| 705 | VORCHAX | 5:41.57 | 0 | 0 |
| 706 | Ziulpe | 5:41.92 | 0 | 0 |
| 707 | Naimi | 5:42.33 | 0 | 0 |
| 708 | Jo Honnus | 5:42.50 | 0 | 0 |
| 708 | SEHN100507 | 5:42.50 | 0 | 0 |
| 710 | triggerhappytao | 5:42.97 | 0 | 0 |
| 711 | Topline | 5:43.03 | 0 | 0 |
| 712 | Stasieniekk | 5:43.37 | 0 | 0 |
| 713 | Gil Mix Diversos 01 | 5:43.39 | 0 | 0 |
| 714 | Yerick Robles | 5:43.74 | 0 | 0 |
| 715 | Albion__ | 5:44.01 | 0 | 0 |
| 716 | calango,só q com k ao invés de | 5:44.25 | 0 | 0 |
| 717 | Lightskin Jesus | 5:44.88 | 0 | 0 |
| 718 | Memphis | 5:45.10 | 0 | 0 |
| 719 | xXx_marbin_xXx | 5:45.23 | 0 | 0 |
| 720 | -W.C. SINCLAIR | 5:45.35 | 0 | 0 |
| 721 | xDarkFaZe19 | 5:45.61 | 0 | 0 |
| 722 | overkillfergo340 | 5:45.82 | 0 | 0 |
| 723 | YashiiSama | 5:45.91 | 0 | 0 |
| 724 | AFRQDED | 5:46.39 | 0 | 0 |
| 725 | gasatom | 5:46.65 | 0 | 0 |
| 726 | Zan | 5:46.80 | 0 | 0 |
| 727 | jmunozvallejo | 5:46.82 | 0 | 0 |
| 728 | mizetaylor19 | 5:47.37 | 0 | 0 |
| 729 | EmeraldFlash | 5:47.46 | 0 | 0 |
| 730 | DaniMC | 5:47.61 | 0 | 0 |
| 731 | Demighost | 5:47.63 | 0 | 0 |
| 732 | Mage Vivian the Matriarch | 5:47.84 | 0 | 0 |
| 733 | Itoshi Gordin | 5:47.86 | 0 | 0 |
| 734 | cobra vertical 07 | 5:47.92 | 0 | 0 |
| 735 | tekugamer2020 | 5:48.21 | 0 | 0 |
| 736 | eik the cat | 5:48.31 | 0 | 0 |
| 737 | manx2010 | 5:48.45 | 0 | 0 |
| 738 | DriveLine | 5:48.62 | 0 | 0 |
| 739 | Jorchxzb | 5:48.81 | 0 | 0 |
| 740 | D2C | Cryo-K | 5:48.83 | 0 | 0 |
| 741 | Samurai BR | 5:48.87 | 0 | 0 |
| 742 | Ennik | 5:49.57 | 0 | 0 |
| 743 | Diablo9017 | 5:49.60 | 0 | 0 |
| 744 | Lats | 5:50.35 | 0 | 0 |
| 745 | Pedro | 5:50.66 | 0 | 0 |
| 746 | Loki4 | 5:50.96 | 0 | 0 |
| 746 | Kadohs | 5:50.96 | 0 | 0 |
| 748 | ✪ Shadow | 5:51.09 | 0 | 0 |
| 749 | Simon Evo | 5:51.65 | 0 | 0 |
| 750 | Distance306 | 5:52.05 | 0 | 0 |
| 751 | Mr. 20k | 5:52.96 | 0 | 0 |
| 752 | Hypertacos | 5:53.02 | 0 | 0 |
| 753 | TotoSmith1992 | 5:54.17 | 0 | 0 |
| 754 | JDHmonkeyboy | 5:54.40 | 0 | 0 |
| 755 | Neoblastz | 5:54.41 | 0 | 0 |
| 756 | PrestonLuigi12 | 5:55.01 | 0 | 0 |
| 757 | xpund1500 | 5:55.18 | 0 | 0 |
| 758 | Synkro | 5:55.68 | 0 | 0 |
| 759 | DANTABLACK | 5:56.63 | 0 | 0 |
| 760 | Brozii | 5:56.64 | 0 | 0 |
| 761 | Jebidiah Ebersole | 5:56.72 | 0 | 0 |
| 762 | TonyMax593 | 5:56.77 | 0 | 0 |
| 763 | Wakare | 5:57.25 | 0 | 0 |
| 764 | Sables | 5:57.42 | 0 | 0 |
| 765 | Eriol | 5:57.48 | 0 | 0 |
| 766 | samwichboy | 5:57.55 | 0 | 0 |
| 767 | PolPo | 5:57.72 | 0 | 0 |
| 768 | Vivi | 5:58.19 | 0 | 0 |
| 769 | Nyl4ss | 5:58.35 | 0 | 0 |
| 770 | < blank > | 5:58.90 | 0 | 0 |
| 771 | solojohn123 | 5:58.92 | 0 | 0 |
| 772 | [RC] | 5:59.09 | 0 | 0 |
| 773 | saikoupath | 5:59.16 | 0 | 0 |
| 774 | Jeecrey | 5:59.17 | 0 | 0 |
| 775 | Odallus | 5:59.20 | 0 | 0 |
| 776 | Searsaur | 5:59.47 | 0 | 0 |
| 777 | WSHNLRN | 5:59.72 | 0 | 0 |
| 778 | TORO'NT | 5:59.76 | 0 | 0 |
| 779 | Lightstone42 | 5:59.79 | 0 | 0 |
| 780 | Tredadawn | 5:59.91 | 0 | 0 |
| 781 | Jimmy Gibbs | 6:00.25 | 0 | 0 |
| 782 | cyborg00789 | 6:00.47 | 0 | 0 |
| 783 | Da1NamedJay | 6:00.59 | 0 | 0 |
| 784 | Lobstr | 6:00.63 | 0 | 0 |
| 785 | RorroPirrorro | 6:02.25 | 0 | 0 |
| 786 | matu666 | 6:02.84 | 0 | 0 |
| 787 | Domino | 6:03.30 | 0 | 0 |
| 788 | TequilaConSal | 6:03.57 | 0 | 0 |
| 789 | Roux | 6:04.16 | 0 | 0 |
| 790 | Dvie | 6:04.63 | 0 | 0 |
| 791 | chase | 6:04.96 | 0 | 0 |
| 792 | Jarminx | 6:05.03 | 0 | 0 |
| 793 | Kuro Kaze | 6:05.72 | 0 | 0 |
| 794 | Glas | 6:05.92 | 0 | 0 |
| 795 | glen.santoz | 6:06.04 | 0 | 0 |
| 796 | TopWolf293 | 6:06.26 | 0 | 0 |
| 797 | The great nOk | 6:06.29 | 0 | 0 |
| 798 | DIREWOLF | 6:06.75 | 0 | 0 |
| 799 | oCa0lho | 6:06.98 | 0 | 0 |
| 800 | K.Ghost | 6:07.41 | 0 | 0 |
| 801 | ErisMRX | 6:07.70 | 0 | 0 |
| 802 | zBismarque | 6:08.32 | 0 | 0 |
| 803 | Nico | 6:08.63 | 0 | 0 |
| 804 | PlaymakerTM | 6:08.87 | 0 | 0 |
| 805 | Demoncowboy18 | 6:09.07 | 0 | 0 |
| 806 | TartanKitty773 | 6:09.36 | 0 | 0 |
| 807 | DvcK | 6:09.38 | 0 | 0 |
| 808 | 76561198295712869 | 6:09.56 | 0 | 0 |
| 809 | Jonny | 6:10.12 | 0 | 0 |
| 810 | Thewarrior3457 | 6:10.51 | 0 | 0 |
| 811 | Dove Linen | 6:10.94 | 0 | 0 |
| 812 | Meda | 6:11.09 | 0 | 0 |
| 813 | Psycho1733 | 6:11.15 | 0 | 0 |
| 813 | Spark | 6:11.15 | 0 | 0 |
| 815 | GRE | 6:11.62 | 0 | 0 |
| 816 | TekuGen | 6:11.98 | 0 | 0 |
| 817 | Prof. Purble | 6:12.43 | 0 | 0 |
| 817 | SkyFall-3 | 6:12.43 | 0 | 0 |
| 817 | Byaku198 | 6:12.43 | 0 | 0 |
| 820 | exodus | 6:12.46 | 0 | 0 |
| 821 | RunawayJesus | 6:12.54 | 0 | 0 |
| 822 | FirstChildEclipse | 6:12.71 | 0 | 0 |
| 823 | Paparazzi | 6:12.73 | 0 | 0 |
| 824 | Joshy Grind | 6:13.18 | 0 | 0 |
| 825 | Sandsword 13 | 6:14.17 | 0 | 0 |
| 826 | Garylsen | 6:14.41 | 0 | 0 |
| 827 | Luhuffis | 6:14.66 | 0 | 0 |
| 828 | DevilsArmada | 6:14.76 | 0 | 0 |
| 829 | Brawlimar | 6:14.83 | 0 | 0 |
| 830 | AgussXd | 6:15.37 | 0 | 0 |
| 831 | fanehernandez53 | 6:15.52 | 0 | 0 |
| 832 | ANTONIO CRUZ 2 | 6:16.53 | 0 | 0 |
| 833 | João Marcos | 6:16.77 | 0 | 0 |
| 834 | Darknight | 6:17.10 | 0 | 0 |
| 835 | TheYacner | 6:17.56 | 0 | 0 |
| 836 | LionHeart | 6:17.63 | 0 | 0 |
| 836 | RaptorZomber935 | 6:17.63 | 0 | 0 |
| 838 | Clobus Hands | 6:17.79 | 0 | 0 |
| 839 | Sybreeder | 6:17.83 | 0 | 0 |
| 840 | szymek | 6:19.26 | 0 | 0 |
| 841 | InuOnna | 6:19.62 | 0 | 0 |
| 842 | Bios | 6:19.69 | 0 | 0 |
| 843 | aleabrantesm1010 | 6:20.50 | 0 | 0 |
| 844 | Leonidasventus | 6:20.98 | 0 | 0 |
| 845 | Tiffany Wilson | 6:21.07 | 0 | 0 |
| 846 | KiiH KiiH | 6:21.13 | 0 | 0 |
| 847 | BuzZoiD | 6:22.15 | 0 | 0 |
| 848 | 𐕣Golden𐕣 | 6:22.85 | 0 | 0 |
| 849 | Axle Dawn Dusk | 6:23.40 | 0 | 0 |
| 850 | DHN | 6:23.56 | 0 | 0 |
| 851 | Glypse | 6:23.74 | 0 | 0 |
| 852 | isaiasibarra007 | 6:23.89 | 0 | 0 |
| 853 | Ventus22 | 6:25.05 | 0 | 0 |
| 854 | JKaiper | 6:25.12 | 0 | 0 |
| 855 | TrialSpace | 6:25.48 | 0 | 0 |
| 856 | oniicham | 6:25.67 | 0 | 0 |
| 857 | Guterson | 6:25.75 | 0 | 0 |
| 858 | Sommelier de Doujin | 6:25.91 | 0 | 0 |
| 859 | Elfiann | 6:26.11 | 0 | 0 |
| 860 | JankyDingus | 6:26.32 | 0 | 0 |
| 861 | Loune Fire | 6:26.46 | 0 | 0 |
| 862 | Super_Shadow57 | 6:26.62 | 0 | 0 |
| 863 | Torikaze_7 | 6:26.79 | 0 | 0 |
| 864 | MintGuy09 | 6:27.77 | 0 | 0 |
| 865 | Gear_Change_The_Earth_Pony | 6:27.78 | 0 | 0 |
| 866 | Rtpills12 | 6:28.33 | 0 | 0 |
| 867 | Amniotus | 6:28.52 | 0 | 0 |
| 868 | TheColdCompany | 6:28.53 | 0 | 0 |
| 869 | Snake Eyes | 6:28.69 | 0 | 0 |
| 870 | Taraniis _04 | 6:29.15 | 0 | 0 |
| 871 | UnoBruno | 6:30.21 | 0 | 0 |
| 872 | XiQu3sT | 6:30.45 | 0 | 0 |
| 873 | WSa2 | 6:30.79 | 0 | 0 |
| 874 | Crespojazzman | 6:31.49 | 0 | 0 |
| 875 | GlonkBonk | 6:31.71 | 0 | 0 |
| 876 | infomercial | 6:31.72 | 0 | 0 |
| 877 | 𝖅𝖆𝖑𝖝𝖔𝖙𝖍 | 6:31.98 | 0 | 0 |
| 878 | Cursorycash | 6:32.46 | 0 | 0 |
| 879 | Anomaly | 6:32.60 | 0 | 0 |
| 880 | ✪ Skiptron | 6:32.92 | 0 | 0 |
| 881 | liljp101 | 6:33.36 | 0 | 0 |
| 882 | Gyro Zeppeli | 6:34.09 | 0 | 0 |
| 883 | Wolf | 6:34.67 | 0 | 0 |
| 884 | Yes, I *do main this character | 6:34.99 | 0 | 0 |
| 885 | Delhjiko | 6:35.52 | 0 | 0 |
| 886 | Tim From HR | 6:36.09 | 0 | 0 |
| 887 | Zord | 6:36.53 | 0 | 0 |
| 888 | T_Levi_vulgoestupradordeidosas | 6:36.54 | 0 | 0 |
| 889 | ErcO²_ | 6:37.71 | 0 | 0 |
| 890 | Midnight | 6:38.31 | 0 | 0 |
| 891 | LadyL | 6:38.44 | 0 | 0 |
| 892 | Kayron Flannygan | 6:39.44 | 0 | 0 |
| 893 | WispTheVulpix | 6:39.45 | 0 | 0 |
| 894 | Luigi | 6:39.53 | 0 | 0 |
| 895 | Nadoc | 6:39.63 | 0 | 0 |
| 896 | @ItzFerno | 6:40.43 | 0 | 0 |
| 897 | Louis. | 6:40.58 | 0 | 0 |
| 898 | RavenHusky | 6:40.84 | 0 | 0 |
| 899 | opaz3205 | 6:42.92 | 0 | 0 |
| 900 | Monfardini | 6:43.29 | 0 | 0 |
| 901 | Seinah | 6:43.31 | 0 | 0 |
| 902 | Maxormous W.I.B. | 6:43.52 | 0 | 0 |
| 903 | WaffleGames | 6:43.94 | 0 | 0 |
| 904 | Isabella | 6:44.30 | 0 | 0 |
| 905 | CaleoCX | 6:44.38 | 0 | 0 |
| 906 | nalibingus | 6:45.47 | 0 | 0 |
| 907 | Fenny | 6:45.65 | 0 | 0 |
| 908 | ESO TILIN | 6:45.70 | 0 | 0 |
| 909 | D3ivid | 6:47.65 | 0 | 0 |
| 910 | Ash | 6:48.20 | 0 | 0 |
| 911 | Gyperツ | 6:48.29 | 0 | 0 |
| 912 | Tijololol | 6:48.37 | 0 | 0 |
| 913 | Neko | 6:48.42 | 0 | 0 |
| 914 | Tapa na Gostosa | 6:49.05 | 0 | 0 |
| 915 | sleider145.yugi | 6:49.31 | 0 | 0 |
| 916 | Demipixels | 6:49.42 | 0 | 0 |
| 917 | HDestructor3000 | 6:49.88 | 0 | 0 |
| 918 | AggressiveCustard | 6:50.88 | 0 | 0 |
| 919 | Debleck | 6:51.07 | 0 | 0 |
| 920 | [REDACTED] | 6:51.81 | 0 | 0 |
| 921 | SentientCarp | 6:51.91 | 0 | 0 |
| 922 | tommeerkat | 6:52.12 | 0 | 0 |
| 923 | joaocoelhogomes | 6:52.45 | 0 | 0 |
| 924 | joao-vitor | 6:52.98 | 0 | 0 |
| 925 | Nickel234 | 6:53.04 | 0 | 0 |
| 926 | Spocker48 | 6:53.08 | 0 | 0 |
| 927 | Ar7icP3nguin | 6:53.56 | 0 | 0 |
| 928 | Beanie | 6:54.51 | 0 | 0 |
| 929 | Saad | 6:54.57 | 0 | 0 |
| 930 | Thrillhouse | 6:54.66 | 0 | 0 |
| 931 | Negaprion | 6:54.70 | 0 | 0 |
| 932 | Junio | 6:54.77 | 0 | 0 |
| 933 | 20GoldPieces | 6:54.81 | 0 | 0 |
| 934 | Parsival24 | 6:55.37 | 0 | 0 |
| 935 | endergecko1218 | 6:55.67 | 0 | 0 |
| 936 | Fruchtschnittchen | 6:55.80 | 0 | 0 |
| 937 | Geesebreath | 6:56.19 | 0 | 0 |
| 938 | AshElm23 | 6:56.33 | 0 | 0 |
| 939 | Eljoaco | 6:56.38 | 0 | 0 |
| 940 | FabioTheTurtle | 6:56.59 | 0 | 0 |
| 941 | DjRobot | 6:57.02 | 0 | 0 |
| 942 | Elbow Grease | 6:57.15 | 0 | 0 |
| 943 | ChaosXZ64 | 6:58.81 | 0 | 0 |
| 944 | DefenderOfHyrule | 6:59.12 | 0 | 0 |
| 945 | Giant From The East | 6:59.41 | 0 | 0 |
| 946 | KemoMaty | 6:59.67 | 0 | 0 |
| 947 | -zaz23- | 6:59.89 | 0 | 0 |
| 948 | Sevy707 | 6:59.99 | 0 | 0 |
| 948 | DMITRY KARBYSHEV | 6:59.99 | 0 | 0 |
| 950 | Italiansizzle | 7:00.77 | 0 | 0 |
| 951 | Chamberbytes | 7:00.91 | 0 | 0 |
| 952 | BrandonK-TN | 7:01.23 | 0 | 0 |
| 953 | Tork | 7:03.57 | 0 | 0 |
| 954 | ShaK'1.0 | 7:04.25 | 0 | 0 |
| 955 | StrongBad | 7:04.26 | 0 | 0 |
| 956 | qHyka | 7:04.94 | 0 | 0 |
| 957 | LeviaTheTempest | 7:05.81 | 0 | 0 |
| 958 | rezzonating | 7:06.64 | 0 | 0 |
| 959 | Lumifur | 7:07.03 | 0 | 0 |
| 960 | Edelgard von Hresvelg | 7:07.37 | 0 | 0 |
| 961 | Earthnuker | 7:07.68 | 0 | 0 |
| 962 | Bubito | 7:08.03 | 0 | 0 |
| 963 | nollflykkj | 7:09.11 | 0 | 0 |
| 964 | civicrider555 | 7:09.16 | 0 | 0 |
| 965 | Flubbred | 7:09.93 | 0 | 0 |
| 966 | 01sduran | 7:10.00 | 0 | 0 |
| 967 | TinFoilMkIV | 7:10.28 | 0 | 0 |
| 968 | Maf | 7:10.45 | 0 | 0 |
| 969 | TheCuteBraixen | 7:11.10 | 0 | 0 |
| 970 | AlexX | 7:11.72 | 0 | 0 |
| 971 | Gummies | 7:12.58 | 0 | 0 |
| 972 | yuqui | 7:13.35 | 0 | 0 |
| 973 | LittleKittyArtemis | 7:13.53 | 0 | 0 |
| 974 | denoir | 7:15.24 | 0 | 0 |
| 975 | Armesio | 7:16.03 | 0 | 0 |
| 976 | TysonThePikachu | 7:16.39 | 0 | 0 |
| 977 | Pregnant Sock | 7:16.56 | 0 | 0 |
| 978 | ShadowRipperhr | 7:17.07 | 0 | 0 |
| 979 | hoppersthree | 7:18.73 | 0 | 0 |
| 980 | Kert Wernie | 7:20.22 | 0 | 0 |
| 981 | Darkitsune | 7:20.62 | 0 | 0 |
| 982 | vasquez13042004 | 7:21.08 | 0 | 0 |
| 983 | Marsh.bit | 7:21.75 | 0 | 0 |
| 984 | Slax_ | 7:22.23 | 0 | 0 |
| 985 | irken | 7:22.33 | 0 | 0 |
| 986 | kidsgra#a | 7:23.23 | 0 | 0 |
| 987 | amaxvieira | 7:23.35 | 0 | 0 |
| 988 | Isbert089 | 7:24.57 | 0 | 0 |
| 989 | Kama | 7:25.05 | 0 | 0 |
| 990 | Monkey_MM | 7:25.74 | 0 | 0 |
| 991 | HRLQN! | 7:27.20 | 0 | 0 |
| 992 | Shi_doh | 7:27.23 | 0 | 0 |
| 993 | Dotza | 7:27.56 | 0 | 0 |
| 994 | Rayne | 7:28.08 | 0 | 0 |
| 995 | SHIRAKO TAKAMOTO | 7:31.60 | 0 | 0 |
| 996 | VikingAtom4 | 7:32.19 | 0 | 0 |
| 997 | TonyTFK | 7:32.35 | 0 | 0 |
| 998 | mjnico94 | 7:32.53 | 0 | 0 |
| 999 | Casterwill | 7:33.63 | 0 | 0 |
| 1,000 | Krag_Hack | 7:34.00 | 0 | 0 |
| 1,001 | milli | 7:34.29 | 0 | 0 |
| 1,002 | Rognar | 7:34.56 | 0 | 0 |
| 1,003 | terron_117 | 7:34.77 | 0 | 0 |
| 1,004 | Alexkurts | 7:35.09 | 0 | 0 |
| 1,005 | Agggs | 7:35.44 | 0 | 0 |
| 1,006 | Jigglypuff | 7:36.64 | 0 | 0 |
| 1,007 | Zolton (it/her) | 7:37.49 | 0 | 0 |
| 1,008 | Orlonditi | 7:37.94 | 0 | 0 |
| 1,008 | Dez | 7:37.94 | 0 | 0 |
| 1,010 | Lud | Forest | 7:39.46 | 0 | 0 |
| 1,011 | RoyRz | 7:39.64 | 0 | 0 |
| 1,012 | Bonnie Ruth | 7:39.90 | 0 | 0 |
| 1,013 | P.C. Heartless | 7:39.97 | 0 | 0 |
| 1,014 | biwanav | 7:41.53 | 0 | 0 |
| 1,015 | S.Arthur 148 | 7:42.46 | 0 | 0 |
| 1,016 | GT 360 | 7:42.61 | 0 | 0 |
| 1,017 | 'Kitty,Prock'Kotty, | 7:42.66 | 0 | 0 |
| 1,018 | Zab | 7:45.27 | 0 | 0 |
| 1,019 | LostGameKarma | 7:45.49 | 0 | 0 |
| 1,020 | ultramasterphp | 7:46.14 | 0 | 0 |
| 1,021 | The Pacific Spirit | 7:46.38 | 0 | 0 |
| 1,022 | Draco | 7:47.16 | 0 | 0 |
| 1,023 | xxXKill_JoyXxx | 7:47.60 | 0 | 0 |
| 1,024 | AlexSex | 7:47.79 | 0 | 0 |
| 1,025 | Zeromaldad | 7:47.93 | 0 | 0 |
| 1,026 | lungfish | 7:48.14 | 0 | 0 |
| 1,027 | Shrapnel Blatner | 7:48.17 | 0 | 0 |
| 1,027 | GAMEMASTER-THX | 7:48.17 | 0 | 0 |
| 1,029 | Supermoo16 | 7:50.24 | 0 | 0 |
| 1,030 | FLPZETA° | 7:50.50 | 0 | 0 |
| 1,031 | Miyako | 7:50.88 | 0 | 0 |
| 1,032 | ATLAS | 7:51.09 | 0 | 0 |
| 1,033 | Mango | 7:51.16 | 0 | 0 |
| 1,034 | Palmyra | 7:53.08 | 0 | 0 |
| 1,035 | Gustavo Aguiar | 7:54.48 | 0 | 0 |
| 1,036 | MafiaMennonite | 7:55.20 | 0 | 0 |
| 1,037 | Telehey21 | 7:57.72 | 0 | 0 |
| 1,038 | Revenger Shot: Brother 2 Brother | 7:58.07 | 0 | 0 |
| 1,039 | Deivid | 7:58.54 | 0 | 0 |
| 1,040 | noob at sex | 7:59.90 | 0 | 0 |
| 1,041 | Chucho14YT | 8:01.11 | 0 | 0 |
| 1,042 | G | 8:01.32 | 0 | 0 |
| 1,043 | Saft Teku | 8:02.47 | 0 | 0 |
| 1,044 | SilverClawZX | 8:03.00 | 0 | 0 |
| 1,045 | The Moonlit Arts | 8:07.16 | 0 | 0 |
| 1,046 | Dr_PeanutMan | 8:10.58 | 0 | 0 |
| 1,047 | Shnurbs | 8:12.67 | 0 | 0 |
| 1,048 | shi+0rty | 8:13.15 | 0 | 0 |
| 1,049 | Slipperduke | 8:13.29 | 0 | 0 |
| 1,050 | CraZy HavK | 8:13.48 | 0 | 0 |
| 1,051 | Pesti | 8:14.76 | 0 | 0 |
| 1,052 | Loys Nuva | 8:15.54 | 0 | 0 |
| 1,053 | cherry creamsicle | 8:16.42 | 0 | 0 |
| 1,054 | Krow48 | 8:16.54 | 0 | 0 |
| 1,055 | The Drunk Knight | 8:16.78 | 0 | 0 |
| 1,056 | Rex | 8:16.80 | 0 | 0 |
| 1,057 | Micropterus salmoides | 8:17.75 | 0 | 0 |
| 1,058 | Knight Of Ni | 8:17.80 | 0 | 0 |
| 1,059 | Protein | 8:19.81 | 0 | 0 |
| 1,060 | Your Local Jordan | 8:21.39 | 0 | 0 |
| 1,061 | Piero888proYT | 8:23.17 | 0 | 0 |
| 1,062 | cesar10014 | 8:23.81 | 0 | 0 |
| 1,063 | Giorno Giovanna | 8:24.56 | 0 | 0 |
| 1,064 | Glitchy | 8:26.46 | 0 | 0 |
| 1,065 | giovapro4576xd | 8:26.66 | 0 | 0 |
| 1,066 | Alex | 8:27.12 | 0 | 0 |
| 1,067 | Ruinoterapevt | 8:29.15 | 0 | 0 |
| 1,068 | toniqe53 | 8:29.75 | 0 | 0 |
| 1,069 | Wawrzyn02 | 8:30.05 | 0 | 0 |
| 1,070 | SMUG KITTY | 8:32.63 | 0 | 0 |
| 1,071 | Tzuky0x | 8:32.85 | 0 | 0 |
| 1,072 | Mr. punctuality | 8:33.69 | 0 | 0 |
| 1,073 | Grandma's Regrets | 8:34.82 | 0 | 0 |
| 1,074 | MONWASHERE | 8:35.97 | 0 | 0 |
| 1,075 | Legadon | 8:37.17 | 0 | 0 |
| 1,076 | Jace_stage | 8:37.78 | 0 | 0 |
| 1,077 | SSX LP | 8:39.22 | 0 | 0 |
| 1,078 | Feiqz | 8:39.28 | 0 | 0 |
| 1,079 | Tamotsu Kagami | 8:40.51 | 0 | 0 |
| 1,080 | The Royal Court | 8:40.81 | 0 | 0 |
| 1,081 | Schneeschatten | 8:42.03 | 0 | 0 |
| 1,082 | Verplex321gg | 8:43.25 | 0 | 0 |
| 1,083 | AmazinCraz3 | 8:46.69 | 0 | 0 |
| 1,083 | KenricGaming | 8:46.69 | 0 | 0 |
| 1,085 | Jxnky | 8:47.56 | 0 | 0 |
| 1,086 | Blaidd | 8:48.67 | 0 | 0 |
| 1,087 | Cirius03 | 8:48.74 | 0 | 0 |
| 1,088 | white_saberwolf | 8:48.80 | 0 | 0 |
| 1,089 | MonoPyro | 8:49.25 | 0 | 0 |
| 1,090 | Reverse flash | 8:49.57 | 0 | 0 |
| 1,091 | JuciyJames | 8:49.81 | 0 | 0 |
| 1,092 | brelar298 | 8:50.18 | 0 | 0 |
| 1,093 | SerkerRS | 8:51.48 | 0 | 0 |
| 1,094 | S.D Gabo Tachyon | 8:52.65 | 0 | 0 |
| 1,095 | UplifTone | 8:57.18 | 0 | 0 |
| 1,096 | Mr.Obvious | 8:57.95 | 0 | 0 |
| 1,097 | El Martillo Mojado | 8:59.59 | 0 | 0 |
| 1,098 | [FGI] Lord Sky High | 9:00.14 | 0 | 0 |
| 1,099 | Karowz | 9:02.74 | 0 | 0 |
| 1,100 | Executormctom | 9:02.75 | 0 | 0 |
| 1,101 | Papa Sugar | 9:03.42 | 0 | 0 |
| 1,102 | Achiro | 9:03.67 | 0 | 0 |
| 1,103 | KadoBR | 9:03.73 | 0 | 0 |
| 1,104 | Codiak | 9:04.52 | 0 | 0 |
| 1,105 | prime4098 | 9:05.91 | 0 | 0 |
| 1,106 | davidfm | 9:11.51 | 0 | 0 |
| 1,107 | I'm-A-Back and Easyjeesy... | 9:11.63 | 0 | 0 |
| 1,108 | Mysfer | 9:13.02 | 0 | 0 |
| 1,109 | wolff440 | 9:15.31 | 0 | 0 |
| 1,110 | SidFast | 9:15.82 | 0 | 0 |
| 1,111 | Haruuzinho | 9:16.41 | 0 | 0 |
| 1,112 | kitkyat | 9:17.76 | 0 | 0 |
| 1,113 | GREEN | 9:18.52 | 0 | 0 |
| 1,114 | Kitts 2-307 | 9:19.11 | 0 | 0 |
| 1,115 | rilelyscastle | 9:25.20 | 0 | 0 |
| 1,116 | Professor Daleheart | 9:26.62 | 0 | 0 |
| 1,117 | samuelmtpo | 9:28.52 | 0 | 0 |
| 1,118 | Johnny_Matrix | 9:30.57 | 0 | 0 |
| 1,119 | Endercreeper962 | 9:31.04 | 0 | 0 |
| 1,120 | Abusamadres Jones | 9:33.52 | 0 | 0 |
| 1,121 | Hya | 9:34.04 | 0 | 0 |
| 1,122 | avelinoman16 | 9:34.19 | 0 | 0 |
| 1,123 | gurt | 9:34.65 | 0 | 0 |
| 1,124 | E5THORN | 9:35.00 | 0 | 0 |
| 1,125 | bgtrem | 9:35.43 | 0 | 0 |
| 1,126 | Nghtrain36 | 9:36.64 | 0 | 0 |
| 1,127 | Wouter Kragt | 9:37.21 | 0 | 0 |
| 1,128 | PayPalMeFuzzby | 9:37.32 | 0 | 0 |
| 1,129 | Raze Silverwing | 9:37.80 | 0 | 0 |
| 1,130 | calne | 9:41.68 | 0 | 0 |
| 1,131 | Oni | 9:42.58 | 0 | 0 |
| 1,132 | Morph_balls | 9:44.91 | 0 | 0 |
| 1,133 | fabriuciorei | 9:48.21 | 0 | 0 |
| 1,134 | Arcturus | 9:50.38 | 0 | 0 |
| 1,135 | rmz | 9:55.13 | 0 | 0 |
| 1,136 | Blitzer000 | 9:56.41 | 0 | 0 |
| 1,137 | xeno | 9:56.62 | 0 | 0 |
| 1,138 | Soap | 10:00.60 | 0 | 0 |
| 1,139 | Geiger32 | 10:01.16 | 0 | 0 |
| 1,140 | _Caps_ | 10:03.84 | 0 | 0 |
| 1,141 | Javi343 | 10:05.22 | 0 | 0 |
| 1,142 | Fernan | 10:11.25 | 0 | 0 |
| 1,143 | Tilez | 10:11.64 | 0 | 0 |
| 1,144 | Leyice.- | 10:15.92 | 0 | 0 |
| 1,145 | strej8 | 10:22.39 | 0 | 0 |
| 1,146 | thebrothers | 10:27.95 | 0 | 0 |
| 1,147 | Maneleras | 10:33.65 | 0 | 0 |
| 1,148 | JaBBerSmack | 10:34.42 | 0 | 0 |
| 1,149 | [Teku] Jorekiller | 10:55.38 | 0 | 0 |
| 1,150 | octacrak | 11:05.96 | 0 | 0 |
| 1,151 | WiteNite | 11:20.66 | 0 | 0 |
| 1,152 | unaww | 11:33.09 | 0 | 0 |
| 1,153 | rabity1003 | 11:46.07 | 0 | 0 |
| 1,154 | DEADFM | 11:53.52 | 0 | 0 |
| 1,155 | Krissy☆ | 11:53.82 | 0 | 0 |
| 1,156 | Gamer3900 | 12:06.96 | 0 | 0 |
| 1,157 | perks | 12:09.37 | 0 | 0 |
| 1,158 | TTV KOBK_Polar666 | 12:11.85 | 0 | 0 |
| 1,159 | %UnderNouzen% | 12:15.43 | 0 | 0 |
| 1,160 | FABIOLASIO | 12:16.02 | 0 | 0 |
| 1,161 | jombus | 12:16.79 | 0 | 0 |
| 1,162 | AIKo | 12:23.50 | 0 | 0 |
| 1,163 | Psyko606 | 12:33.86 | 0 | 0 |
| 1,164 | Latapi | 12:51.08 | 0 | 0 |
| 1,165 | Black | 13:08.89 | 0 | 0 |
| 1,166 | Diablo | 13:09.31 | 0 | 0 |
| 1,167 | fabffreitas | 13:57.56 | 0 | 0 |
| 1,168 | jovadj1 | 14:23.04 | 0 | 0 |
| 1,169 | PHgamer13VT | 15:30.06 | 0 | 0 |
| 1,170 | Nastya | 15:50.27 | 0 | 0 |
| 1,171 | Mr. Diseño de Plantas | 16:57.81 | 0 | 0 |
| 1,172 | surom | 17:11.90 | 0 | 0 |
| 1,173 | The | 17:26.78 | 0 | 0 |
| 1,174 | Gustadarkns | 17:34.51 | 0 | 0 |
| 1,175 | Veszeal | 17:47.35 | 0 | 0 |
| 1,176 | Spleens | 17:49.84 | 0 | 0 |
| 1,177 | FREEEEEEEEDOM | 17:50.42 | 0 | 0 |
| 1,178 | mideL_ | 18:18.16 | 0 | 0 |
| 1,179 | 76561199063935139 | 19:11.62 | 0 | 0 |
| 1,180 | Oraz_17 | 19:33.15 | 0 | 0 |
| 1,181 | Dauntedmoon | 21:41.48 | 0 | 0 |
| 1,182 | Wi Rally | 21:56.63 | 0 | 0 |
| 1,183 | breleleb | 22:03.21 | 0 | 0 |
| 1,184 | BlunicoxD | 22:12.11 | 0 | 0 |
| 1,185 | Dingier | 23:20.42 | 0 | 0 |
HoldGrip